Time;durP1;ratioP1;P1;durP2;ratioP2;P2;SDS_P1;SDS_P2;PMS_P1;PMS_P2;Temp;Humidity;BMP_temperature;BMP_pressure;BME280_temperature;BME280_humidity;BME280_pressure;Samples;Min_cycle;Max_cycle;Signal;HPM_P1;HPM_P2
2022/10/22 00:01:04;;;;;;;;;1.25;1.00;;;;;17.57;65.13;100204.97;4956728;28;46002;-79
2022/10/22 00:03:30;;;;;;;;;0.75;0.75;;;;;17.65;65.18;100232.50;4958078;28;45865;-79
2022/10/22 00:05:55;;;;;;;;;1.00;1.00;;;;;17.64;65.18;100230.84;4957408;28;46231;-81
2022/10/22 00:08:21;;;;;;;;;1.75;1.00;;;;;17.63;64.87;100231.81;4958052;28;45655;-84
2022/10/22 00:10:47;;;;;;;;;2.00;1.00;;;;;17.59;65.16;100231.28;4956168;28;45747;-78
2022/10/22 00:13:13;;;;;;;;;1.50;1.50;;;;;17.43;64.92;100195.03;4958326;28;45543;-80
2022/10/22 00:15:38;;;;;;;;;1.00;1.00;;;;;17.61;64.96;100242.56;4957908;28;45829;-78
2022/10/22 00:18:03;;;;;;;;;1.00;1.00;;;;;17.60;65.32;100227.66;4959448;28;45743;-81
2022/10/22 00:20:29;;;;;;;;;0.67;0.00;;;;;17.59;65.32;100237.47;4958194;28;45533;-82
2022/10/22 00:22:54;;;;;;;;;1.00;1.00;;;;;17.59;65.38;100241.91;4958759;28;45696;-82
2022/10/22 00:25:20;;;;;;;;;1.00;1.00;;;;;17.56;65.04;100244.84;4957324;28;45874;-78
2022/10/22 00:31:07;;;;;;;;;1.00;1.00;;;;;17.55;65.07;100251.13;4957104;28;45657;-78
2022/10/22 00:33:33;;;;;;;;;1.00;1.00;;;;;17.52;65.48;100257.59;4957522;28;45596;-83
2022/10/22 00:36:04;;;;;;;;;1.00;1.00;;;;;17.38;65.52;100247.63;4957114;28;45660;-79
2022/10/22 00:38:33;;;;;;;;;1.50;1.25;;;;;17.25;65.44;100236.66;4956702;28;46546;-79
2022/10/22 00:40:58;;;;;;;;;1.75;1.75;;;;;17.38;65.38;100252.91;4956938;28;45673;-78
2022/10/22 00:46:45;;;;;;;;;1.75;1.25;;;;;17.41;65.19;100280.91;4956793;28;45704;-78
2022/10/22 00:49:11;;;;;;;;;1.50;1.00;;;;;17.32;65.07;100264.19;4957202;28;46607;-80
2022/10/22 00:51:36;;;;;;;;;2.25;2.00;;;;;17.40;65.27;100280.06;4957043;28;45575;-78
2022/10/22 00:54:07;;;;;;;;;1.50;1.00;;;;;17.39;65.25;100281.06;4957154;28;45865;-78
2022/10/22 00:56:32;;;;;;;;;1.75;1.75;;;;;17.38;65.82;100282.03;4955651;28;47198;-77
2022/10/22 00:58:59;;;;;;;;;1.50;1.00;;;;;17.38;65.67;100295.28;4957247;28;47014;-80
2022/10/22 01:01:28;;;;;;;;;0.25;0.00;;;;;17.38;65.76;100297.94;4956817;28;45850;-76
2022/10/22 01:03:53;;;;;;;;;1.25;1.00;;;;;17.34;65.72;100303.72;4939737;28;45969;-81
2022/10/22 01:06:30;;;;;;;;;1.50;1.00;;;;;17.32;65.83;100295.97;4957142;28;47761;-78
2022/10/22 01:09:08;;;;;;;;;2.75;1.00;;;;;17.35;65.41;100298.28;4939798;28;45872;-82
2022/10/22 01:11:52;;;;;;;;;1.25;1.00;;;;;17.33;65.42;100313.47;4957332;28;45792;-80
2022/10/22 01:14:36;;;;;;;;;1.00;1.00;;;;;17.31;65.76;100310.19;4957689;28;45757;-82
2022/10/22 01:17:09;;;;;;;;;1.50;1.00;;;;;17.29;65.23;100306.03;4957097;28;46640;-80
2022/10/22 01:19:55;;;;;;;;;1.00;1.00;;;;;17.27;65.25;100314.16;4958654;28;45957;-82
2022/10/22 01:22:41;;;;;;;;;1.00;0.75;;;;;17.25;65.12;100323.22;4957914;28;45506;-84
2022/10/22 01:25:26;;;;;;;;;1.00;1.00;;;;;17.23;65.62;100328.66;4959576;28;45783;-84
2022/10/22 01:28:06;;;;;;;;;0.75;0.00;;;;;17.19;65.17;100325.50;4958583;28;45740;-81
2022/10/22 01:30:35;;;;;;;;;0.00;0.00;;;;;17.20;65.50;100337.78;4958617;28;45917;-83
2022/10/22 01:33:06;;;;;;;;;1.00;0.25;;;;;17.21;65.29;100330.66;4958928;28;45617;-80
2022/10/22 01:35:38;;;;;;;;;1.25;1.00;;;;;17.18;65.66;100337.09;4959048;28;45739;-81
2022/10/22 01:38:08;;;;;;;;;2.00;0.25;;;;;17.19;65.57;100337.91;4957696;28;48698;-78
2022/10/22 01:40:35;;;;;;;;;1.75;1.50;;;;;17.01;65.48;100306.22;4959785;28;45782;-80
2022/10/22 01:43:12;;;;;;;;;1.75;1.00;;;;;17.17;65.55;100338.06;4963852;28;45612;-81
2022/10/22 01:45:49;;;;;;;;;1.75;0.00;;;;;17.16;65.51;100341.72;4970651;28;45555;-78
2022/10/22 01:48:42;;;;;;;;;2.25;1.75;;;;;17.16;65.57;100340.91;4973792;28;48623;-81
2022/10/22 01:51:19;;;;;;;;;1.00;0.00;;;;;17.15;65.29;100340.06;4971845;28;45668;-83
2022/10/22 01:54:02;;;;;;;;;0.75;0.75;;;;;17.12;65.30;100340.38;4969486;28;45447;-80
2022/10/22 01:56:46;;;;;;;;;2.75;1.00;;;;;17.15;65.60;100339.22;4966970;28;45836;-82
2022/10/22 01:59:30;;;;;;;;;2.75;1.00;;;;;17.17;65.54;100350.47;4961346;28;45503;-83
2022/10/22 02:02:34;;;;;;;;;2.00;2.00;;;;;17.18;65.32;100345.03;4958988;28;46474;-82
2022/10/22 02:05:09;;;;;;;;;2.00;0.50;;;;;17.20;65.22;100347.53;4956165;28;45530;-80
2022/10/22 02:07:48;;;;;;;;;1.25;1.00;;;;;17.20;65.65;100340.41;4956619;28;45589;-84
2022/10/22 02:10:16;;;;;;;;;1.00;1.00;;;;;17.24;65.15;100351.50;4956595;28;46436;-83
2022/10/22 02:16:07;;;;;;;;;1.25;0.25;;;;;17.24;65.50;100364.75;4956000;28;45664;-82
2022/10/22 02:18:35;;;;;;;;;1.25;0.50;;;;;17.29;65.24;100351.03;4956293;28;45844;-83
2022/10/22 02:21:01;;;;;;;;;0.50;0.25;;;;;17.26;65.08;100349.56;4955939;28;46186;-82
2022/10/22 02:23:27;;;;;;;;;1.00;0.00;;;;;17.27;65.23;100353.88;4955894;28;45666;-83
2022/10/22 02:26:05;;;;;;;;;0.00;0.00;;;;;17.28;65.09;100352.84;4956130;28;45495;-85
2022/10/22 02:31:57;;;;;;;;;0.00;0.00;;;;;17.27;65.63;100350.38;4956075;28;46138;-85
2022/10/22 02:34:28;;;;;;;;;1.50;1.00;;;;;17.26;65.07;100354.00;4955807;28;46397;-82
2022/10/22 02:36:55;;;;;;;;;1.00;1.00;;;;;17.23;65.41;100349.84;4955761;28;45733;-81
2022/10/22 02:39:21;;;;;;;;;1.50;0.75;;;;;17.26;65.56;100349.56;4956432;28;45638;-84
2022/10/22 02:41:48;;;;;;;;;0.75;0.00;;;;;17.25;65.23;100349.69;4955714;28;45701;-85
2022/10/22 02:47:48;;;;;;;;;;;;;;;;;;;;;
2022/10/22 02:50:16;;;;;;;;;2.00;1.00;;;;;17.27;65.62;100366.28;4952321;28;70035;-84
2022/10/22 02:52:47;;;;;;;;;1.50;1.00;;;;;17.19;65.64;100361.75;4955240;28;46530;-83
2022/10/22 02:55:13;;;;;;;;;0.00;0.00;;;;;16.77;65.16;100295.50;4955308;28;46320;-85
2022/10/22 02:57:38;;;;;;;;;1.00;1.00;;;;;17.29;65.20;100388.94;4955154;28;45603;-80
2022/10/22 03:04:06;;;;;;;;;2.50;1.00;;;;;17.24;65.16;100385.09;4957591;28;45780;-82
2022/10/22 03:06:32;;;;;;;;;1.75;1.00;;;;;17.27;65.38;100393.59;4959065;28;46258;-82
2022/10/22 03:08:59;;;;;;;;;0.50;0.50;;;;;17.26;65.51;100393.72;4959686;28;45905;-80
2022/10/22 03:11:28;;;;;;;;;1.00;1.00;;;;;17.23;65.52;100391.38;4959411;28;45688;-85
2022/10/22 03:13:56;;;;;;;;;1.00;1.00;;;;;17.20;65.60;100387.25;4959766;28;45745;-82
2022/10/22 03:16:27;;;;;;;;;2.00;1.00;;;;;17.04;65.92;100366.81;4958827;28;46637;-81
2022/10/22 03:19:11;;;;;;;;;1.75;1.00;;;;;16.86;65.26;100346.66;4941275;28;45562;-85
2022/10/22 03:22:04;;;;;;;;;1.00;1.00;;;;;17.19;65.97;100407.59;4958670;28;45954;-83
2022/10/22 03:24:42;;;;;;;;;1.50;0.25;;;;;16.98;66.25;100377.19;4958399;28;46585;-85
2022/10/22 03:27:09;;;;;;;;;2.00;1.00;;;;;17.15;66.32;100414.19;4941929;28;45547;-84
2022/10/22 03:29:43;;;;;;;;;1.00;1.00;;;;;17.14;65.75;100406.41;4958356;28;45617;-85
2022/10/22 03:32:09;;;;;;;;;0.50;0.50;;;;;17.09;66.21;100398.94;4958523;28;45831;-85
2022/10/22 03:34:37;;;;;;;;;1.00;1.00;;;;;17.08;66.34;100404.38;4958174;28;46410;-84
2022/10/22 03:37:03;;;;;;;;;1.25;1.00;;;;;17.03;66.52;100406.66;4940796;28;47380;-77
2022/10/22 03:39:32;;;;;;;;;1.00;1.00;;;;;17.07;66.63;100418.59;4958421;28;45605;-82
2022/10/22 03:41:59;;;;;;;;;1.00;1.00;;;;;17.04;66.27;100419.75;4941755;28;45763;-78
2022/10/22 03:44:26;;;;;;;;;0.00;0.00;;;;;17.01;66.25;100406.81;4957243;28;46416;-82
2022/10/22 03:46:52;;;;;;;;;0.75;0.50;;;;;16.98;66.50;100422.19;4957714;28;45744;-77
2022/10/22 03:49:17;;;;;;;;;0.25;0.00;;;;;16.92;66.92;100412.19;4941097;28;45686;-82
2022/10/22 03:51:42;;;;;;;;;1.00;0.00;;;;;16.97;66.68;100421.34;4957957;28;45692;-82
2022/10/22 03:54:08;;;;;;;;;1.50;0.25;;;;;16.97;66.85;100420.50;4957717;28;47527;-82
2022/10/22 03:56:33;;;;;;;;;2.50;1.00;;;;;16.98;66.92;100419.53;4957397;28;46060;-85
2022/10/22 03:59:00;;;;;;;;;2.00;1.00;;;;;16.87;66.36;100410.03;4958020;28;45607;-85
2022/10/22 04:01:39;;;;;;;;;1.50;0.75;;;;;16.75;66.96;100392.72;4957926;28;45599;-84
2022/10/22 04:04:04;;;;;;;;;0.50;0.50;;;;;16.99;66.72;100434.44;4957302;28;45698;-79
2022/10/22 04:06:30;;;;;;;;;1.75;1.75;;;;;16.98;66.90;100444.19;4957661;28;45611;-82
2022/10/22 04:08:55;;;;;;;;;1.00;0.00;;;;;16.98;67.03;100436.25;4956105;28;45723;-84
2022/10/22 04:11:21;;;;;;;;;1.25;0.25;;;;;16.96;66.72;100440.84;4957856;28;45552;-85
2022/10/22 04:13:46;;;;;;;;;1.25;0.50;;;;;17.00;66.67;100451.97;4957011;28;45526;-85
2022/10/22 04:16:18;;;;;;;;;1.50;1.00;;;;;17.01;66.70;100445.66;4957149;28;46861;-85
2022/10/22 04:18:45;;;;;;;;;2.75;1.00;;;;;16.99;66.92;100447.66;4957571;28;45783;-84
2022/10/22 04:21:13;;;;;;;;;0.00;0.00;;;;;17.04;66.54;100458.63;4957493;28;45502;-86
2022/10/22 04:23:38;;;;;;;;;1.00;0.50;;;;;17.00;66.87;100455.47;4957739;28;46639;-81
2022/10/22 04:26:06;;;;;;;;;1.50;1.00;;;;;17.06;66.45;100465.41;4957905;28;47271;-79
2022/10/22 04:28:32;;;;;;;;;1.00;1.00;;;;;17.08;66.66;100466.09;4958661;28;45645;-80
2022/10/22 04:34:26;;;;;;;;;1.00;1.00;;;;;17.13;66.35;100465.63;4962008;28;46031;-82
2022/10/22 04:36:52;;;;;;;;;1.00;1.00;;;;;17.14;66.73;100462.81;4958427;28;46114;-83
2022/10/22 04:39:17;;;;;;;;;1.75;1.00;;;;;17.16;66.21;100471.47;4939941;28;45730;-82
2022/10/22 04:41:42;;;;;;;;;1.50;1.00;;;;;17.10;66.69;100455.34;4958527;28;45830;-81
2022/10/22 04:44:08;;;;;;;;;1.25;1.00;;;;;17.12;66.52;100463.97;4961463;28;46738;-78
2022/10/22 04:46:34;;;;;;;;;1.00;0.00;;;;;17.23;66.69;100484.88;4957565;28;45739;-77
2022/10/22 04:48:59;;;;;;;;;3.00;1.00;;;;;17.16;66.34;100467.97;4955283;28;45716;-77
2022/10/22 04:51:26;;;;;;;;;1.00;1.00;;;;;17.26;66.70;100489.91;4957126;28;45812;-83
2022/10/22 04:53:52;;;;;;;;;2.00;1.00;;;;;17.28;66.51;100477.31;4955433;28;47486;-78
2022/10/22 04:56:20;;;;;;;;;2.00;1.25;;;;;17.29;66.42;100478.97;4956257;28;45585;-81
2022/10/22 04:58:49;;;;;;;;;3.00;2.00;;;;;17.25;66.05;100474.97;4957405;28;45685;-84
2022/10/22 05:04:36;;;;;;;;;8.00;7.00;;;;;17.33;66.24;100488.25;4954896;28;45659;-82
2022/10/22 05:07:02;;;;;;;;;8.75;8.25;;;;;17.26;66.33;100476.66;4956321;28;46208;-81
2022/10/22 05:09:27;;;;;;;;;12.00;12.00;;;;;17.34;66.18;100484.63;4955773;28;45653;-81
2022/10/22 05:11:53;;;;;;;;;8.75;8.00;;;;;17.31;66.17;100481.47;4956614;28;45784;-83
2022/10/22 05:14:21;;;;;;;;;8.00;7.25;;;;;17.35;66.45;100502.19;4956843;28;46375;-82
2022/10/22 05:16:47;;;;;;;;;6.75;6.00;;;;;17.16;66.14;100462.69;4957875;28;46327;-80
2022/10/22 05:19:18;;;;;;;;;6.25;5.00;;;;;17.30;66.36;100485.09;4959348;28;45598;-82
2022/10/22 05:21:44;;;;;;;;;3.50;3.00;;;;;17.28;66.58;100489.72;4959409;28;45314;-82
2022/10/22 05:24:09;;;;;;;;;3.50;2.00;;;;;17.29;66.11;100494.03;4956885;28;46678;-83
2022/10/22 05:26:36;;;;;;;;;3.75;3.75;;;;;17.37;66.15;100517.94;4955691;28;46995;-80
2022/10/22 05:29:01;;;;;;;;;2.00;2.00;;;;;17.32;66.56;100505.16;4956112;28;45649;-77
2022/10/22 05:34:48;;;;;;;;;3.50;3.00;;;;;17.36;66.59;100511.81;4956213;28;46083;-81
2022/10/22 05:37:15;;;;;;;;;2.75;2.00;;;;;17.24;66.20;100491.84;4955411;28;45746;-81
2022/10/22 05:39:40;;;;;;;;;1.00;1.00;;;;;17.34;66.60;100518.22;4970799;28;45637;-83
2022/10/22 05:42:06;;;;;;;;;0.50;0.00;;;;;17.39;66.24;100521.25;4956054;28;45716;-80
2022/10/22 05:44:31;;;;;;;;;2.00;2.00;;;;;17.31;66.28;100510.59;4938586;28;47494;-80
2022/10/22 05:50:18;;;;;;;;;2.50;1.00;;;;;17.32;66.30;100521.06;4955709;28;45654;-80
2022/10/22 05:52:44;;;;;;;;;2.00;2.00;;;;;17.30;66.57;100525.66;4958242;28;45686;-86
2022/10/22 05:55:09;;;;;;;;;1.00;1.00;;;;;17.30;66.31;100520.38;4958618;28;46678;-83
2022/10/22 05:57:34;;;;;;;;;2.00;1.00;;;;;17.29;66.26;100515.22;4957234;28;46195;-82
2022/10/22 05:59:59;;;;;;;;;2.00;2.00;;;;;17.29;66.69;100520.50;4956481;28;45615;-81
2022/10/22 06:02:25;;;;;;;;;2.00;2.00;;;;;17.24;66.65;100520.97;4956455;28;45617;-82
2022/10/22 06:04:50;;;;;;;;;2.00;1.00;;;;;17.23;66.54;100518.47;4957509;28;46279;-86
2022/10/22 06:07:16;;;;;;;;;2.00;1.00;;;;;17.18;66.75;100513.66;4956572;28;47349;-80
2022/10/22 06:09:41;;;;;;;;;4.25;2.25;;;;;17.11;66.89;100502.03;4955789;28;45602;-81
2022/10/22 06:12:09;;;;;;;;;3.25;3.00;;;;;17.22;66.43;100525.59;4956005;28;45481;-85
2022/10/22 06:14:35;;;;;;;;;1.50;1.50;;;;;17.23;66.77;100532.56;4938702;28;46721;-80
2022/10/22 06:20:22;;;;;;;;;5.50;5.00;;;;;17.22;67.02;100540.66;4955919;28;45471;-85
2022/10/22 06:22:48;;;;;;;;;2.25;2.00;;;;;17.16;66.59;100528.88;4959363;28;45530;-83
2022/10/22 06:25:13;;;;;;;;;3.00;2.25;;;;;17.22;66.51;100543.31;4957947;28;45502;-83
2022/10/22 06:27:39;;;;;;;;;3.00;2.25;;;;;17.23;66.66;100547.59;4940418;28;46106;-84
2022/10/22 06:30:05;;;;;;;;;3.00;2.00;;;;;17.21;66.90;100539.84;4955601;28;45696;-87
2022/10/22 06:32:50;;;;;;;;;3.00;2.25;;;;;17.20;66.93;100551.41;4956536;28;45669;-85
2022/10/22 06:35:16;;;;;;;;;1.50;1.50;;;;;17.13;66.37;100543.22;4957501;28;46595;-86
2022/10/22 06:37:41;;;;;;;;;3.00;2.50;;;;;17.19;66.91;100547.91;4956894;28;45941;-85
2022/10/22 06:40:07;;;;;;;;;2.75;2.00;;;;;17.21;66.75;100553.06;4956340;28;45706;-84
2022/10/22 06:42:33;;;;;;;;;3.00;1.75;;;;;17.22;66.80;100557.34;4958064;28;45876;-81
2022/10/22 06:44:59;;;;;;;;;2.25;2.25;;;;;17.08;66.62;100534.91;4956523;28;45620;-86
2022/10/22 06:50:46;;;;;;;;;3.00;3.00;;;;;17.11;66.62;100562.91;4961939;28;45641;-86
2022/10/22 06:53:11;;;;;;;;;2.75;2.00;;;;;17.10;67.03;100564.72;4967282;28;45947;-87
2022/10/22 06:55:38;;;;;;;;;1.00;1.00;;;;;17.14;66.50;100571.38;4967282;28;45688;-82
2022/10/22 06:58:03;;;;;;;;;2.00;2.00;;;;;17.07;66.61;100567.66;4962131;28;45989;-82
2022/10/22 07:00:29;;;;;;;;;3.75;2.00;;;;;17.17;66.55;100586.13;4965343;28;45582;-89
2022/10/22 07:02:54;;;;;;;;;3.25;2.00;;;;;17.16;66.70;100595.91;4969644;28;45518;-84
2022/10/22 07:05:25;;;;;;;;;3.25;2.00;;;;;17.15;66.81;100598.69;4950657;28;45733;-83
2022/10/22 07:07:50;;;;;;;;;2.75;2.25;;;;;17.08;66.93;100592.31;4961373;28;46958;-87
2022/10/22 07:10:16;;;;;;;;;1.50;1.00;;;;;17.13;66.52;100617.38;4975714;28;45714;-89
2022/10/22 07:12:41;;;;;;;;;3.25;2.00;;;;;17.04;67.26;100597.09;4960781;28;45650;-89
2022/10/22 07:15:10;;;;;;;;;3.00;2.50;;;;;17.01;66.75;100591.25;4966636;28;47674;-85
2022/10/22 07:20:59;;;;;;;;;4.00;3.00;;;;;17.05;67.02;100612.00;4966617;28;45161;-82
2022/10/22 07:23:28;;;;;;;;;3.00;2.00;;;;;17.12;66.77;100630.75;4965457;28;45565;-88
2022/10/22 07:26:05;;;;;;;;;1.25;1.25;;;;;17.14;67.19;100631.44;4971624;28;45852;-86
2022/10/22 07:28:38;;;;;;;;;3.00;2.00;;;;;17.16;66.76;100642.72;4970621;28;45683;-87
2022/10/22 07:31:08;;;;;;;;;2.50;2.00;;;;;17.18;67.26;100638.09;4978862;28;45733;-84
2022/10/22 07:33:33;;;;;;;;;2.50;2.00;;;;;16.79;66.74;100574.00;4968168;28;45232;-82
2022/10/22 07:36:01;;;;;;;;;2.00;2.00;;;;;17.22;66.76;100638.66;4967576;28;45622;-89
2022/10/22 07:38:27;;;;;;;;;2.25;2.25;;;;;17.06;67.23;100612.81;4958847;28;46186;-88
2022/10/22 07:40:55;;;;;;;;;4.00;3.00;;;;;17.02;66.62;100608.81;4958564;28;45642;-86
2022/10/22 07:43:21;;;;;;;;;3.75;2.00;;;;;17.03;66.63;100603.38;4973837;28;45633;-84
2022/10/22 07:45:48;;;;;;;;;4.00;2.25;;;;;17.29;66.70;100650.28;4956947;28;46664;-82
2022/10/22 07:51:37;;;;;;;;;3.50;2.00;;;;;17.31;67.06;100650.97;4961638;28;45512;-88
2022/10/22 07:54:03;;;;;;;;;5.00;2.50;;;;;17.20;67.06;100631.69;4962836;28;45655;-83
2022/10/22 07:56:28;;;;;;;;;2.00;2.00;;;;;17.25;66.77;100635.69;4961397;28;45619;-83
2022/10/22 07:58:54;;;;;;;;;5.00;3.00;;;;;17.31;66.80;100646.50;4964622;28;46173;-82
2022/10/22 08:01:25;;;;;;;;;2.25;2.25;;;;;17.32;66.88;100655.28;4965290;28;45584;-81
2022/10/22 08:03:51;;;;;;;;;3.25;3.00;;;;;17.30;66.69;100655.44;4944261;28;45751;-88
2022/10/22 08:06:16;;;;;;;;;3.00;2.00;;;;;17.34;66.43;100662.06;4943934;28;48518;-87
2022/10/22 08:08:44;;;;;;;;;3.50;2.00;;;;;17.35;66.84;100671.69;4943454;28;46480;-87
2022/10/22 08:11:10;;;;;;;;;4.00;3.00;;;;;17.28;66.69;100652.09;4941238;28;45626;-86
2022/10/22 08:13:35;;;;;;;;;3.00;3.00;;;;;17.37;66.39;100664.44;4940373;28;45653;-85
2022/10/22 08:16:01;;;;;;;;;6.00;3.00;;;;;17.37;66.36;100667.09;4939216;28;46573;-88
2022/10/22 08:21:48;;;;;;;;;2.50;2.00;;;;;17.37;66.33;100672.38;4943896;28;45691;-86
2022/10/22 08:24:14;;;;;;;;;5.00;4.25;;;;;17.35;66.42;100660.25;4959359;28;45655;-85
2022/10/22 08:26:40;;;;;;;;;5.75;5.00;;;;;17.36;66.22;100662.78;4945083;28;47405;-87
2022/10/22 08:29:06;;;;;;;;;2.00;2.00;;;;;17.40;66.62;100665.94;4946812;28;45553;-86
2022/10/22 08:31:32;;;;;;;;;2.50;1.75;;;;;17.44;66.34;100670.78;4941118;28;45519;-87
2022/10/22 08:33:57;;;;;;;;;4.00;2.50;;;;;17.39;66.51;100657.16;4941179;28;45605;-81
2022/10/22 08:36:23;;;;;;;;;3.00;3.00;;;;;17.41;66.61;100655.19;4946117;28;45709;-84
2022/10/22 08:38:51;;;;;;;;;3.50;3.00;;;;;17.48;66.63;100660.72;4933548;28;47430;-86
2022/10/22 08:41:19;;;;;;;;;2.00;2.00;;;;;17.13;66.33;100601.47;4952732;28;45645;-84
2022/10/22 08:43:57;;;;;;;;;3.00;3.00;;;;;17.52;66.18;100664.72;4945548;28;45632;-86
2022/10/22 08:53:33;;;;;;;;;4.00;3.00;;;;;17.38;66.32;100636.16;4941690;28;45716;-86
2022/10/22 08:55:58;;;;;;;;;4.00;3.00;;;;;17.39;66.74;100646.56;4923089;28;45452;-86
2022/10/22 08:58:50;;;;;;;;;4.00;3.00;;;;;17.61;66.16;100677.09;4940175;28;46569;-87
2022/10/22 09:01:32;;;;;;;;;3.25;2.00;;;;;17.56;66.16;100669.56;4940346;28;46295;-88
2022/10/22 09:04:29;;;;;;;;;2.75;2.75;;;;;17.68;66.28;100679.97;4947503;28;45634;-88
2022/10/22 09:06:58;;;;;;;;;4.75;3.00;;;;;17.71;66.49;100683.13;4970515;28;45746;-83
2022/10/22 09:09:30;;;;;;;;;3.00;2.00;;;;;17.75;66.70;100675.72;4967465;28;45555;-84
2022/10/22 09:11:59;;;;;;;;;2.75;2.00;;;;;17.77;66.60;100679.88;4969065;28;45908;-82
2022/10/22 09:14:25;;;;;;;;;2.00;2.00;;;;;17.74;66.33;100666.09;4964629;28;45778;-78
2022/10/22 09:20:35;;;;;;;;;1.00;1.00;;;;;17.85;66.61;100666.69;4963792;28;45539;-89
2022/10/22 09:23:21;;;;;;;;;3.00;2.25;;;;;17.88;66.11;100676.16;4961873;28;45702;-82
2022/10/22 09:25:50;;;;;;;;;2.00;2.00;;;;;17.89;66.56;100668.06;4957490;28;45629;-82
2022/10/22 09:28:21;;;;;;;;;3.50;2.75;;;;;17.93;66.03;100669.41;4956401;28;45831;-82
2022/10/22 09:30:47;;;;;;;;;3.00;1.75;;;;;17.99;66.43;100679.38;4955945;28;45656;-81
2022/10/22 09:36:34;;;;;;;;;2.00;2.00;;;;;18.07;66.25;100680.44;4956283;28;45535;-82
2022/10/22 09:39:02;;;;;;;;;1.75;1.25;;;;;18.06;66.28;100679.59;4956093;28;45581;-79
2022/10/22 09:41:28;;;;;;;;;5.00;3.00;;;;;18.07;65.94;100670.66;4955516;28;47498;-81
2022/10/22 09:43:55;;;;;;;;;4.25;2.00;;;;;18.18;65.97;100677.53;4955747;28;47081;-82
2022/10/22 09:46:26;;;;;;;;;2.00;1.75;;;;;18.21;66.32;100664.78;4956462;28;45692;-78
2022/10/22 09:52:27;;;;;;;;;2.50;1.50;;;;;18.28;66.15;100662.34;4955728;28;45589;-79
2022/10/22 09:54:52;;;;;;;;;2.25;2.00;;;;;18.32;66.21;100661.03;4957051;28;45941;-80
2022/10/22 09:57:21;;;;;;;;;3.00;1.75;;;;;18.31;66.26;100656.72;4956711;28;45677;-76
2022/10/22 09:59:49;;;;;;;;;8.25;5.75;;;;;18.37;65.69;100667.53;4956869;28;45668;-82
2022/10/22 10:09:21;;;;;;;;;2.25;2.00;;;;;18.50;65.78;100664.44;4876797;29;45616;-79
2022/10/22 10:12:08;;;;;;;;;3.50;2.25;;;;;18.55;66.23;100664.84;4876441;29;45613;-79
2022/10/22 10:14:55;;;;;;;;;3.00;2.00;;;;;18.58;65.63;100667.16;4877195;29;46438;-80
2022/10/22 10:24:27;;;;;;;;;3.00;2.75;;;;;18.73;65.79;100667.41;4877200;29;45755;-78
2022/10/22 10:27:08;;;;;;;;;2.00;1.00;;;;;18.74;65.59;100667.22;4877983;29;45729;-79
2022/10/22 10:29:52;;;;;;;;;2.75;2.00;;;;;18.78;65.52;100659.78;4877354;29;46054;-78
2022/10/22 10:36:01;;;;;;;;;2.50;1.50;;;;;18.95;65.42;100666.00;4839935;29;45728;-79
2022/10/22 10:39:03;;;;;;;;;1.00;1.00;;;;;19.02;65.10;100682.91;4838298;29;46463;-77
2022/10/22 10:42:00;;;;;;;;;3.75;2.50;;;;;19.07;64.84;100685.91;4846154;29;46102;-78
2022/10/22 10:44:34;;;;;;;;;3.00;2.00;;;;;19.11;65.40;100687.28;4821035;29;46016;-81
2022/10/22 10:47:28;;;;;;;;;3.00;2.00;;;;;19.14;64.89;100679.81;4820050;29;45943;-78
2022/10/22 10:50:10;;;;;;;;;2.00;1.75;;;;;19.19;65.18;100685.47;4820368;29;47079;-83
2022/10/22 10:53:02;;;;;;;;;2.00;2.00;;;;;19.24;64.74;100677.00;4820494;29;46160;-82
2022/10/22 10:55:33;;;;;;;;;1.00;1.00;;;;;19.27;64.34;100690.78;4820680;29;45652;-80
2022/10/22 10:58:15;;;;;;;;;3.00;2.00;;;;;19.28;64.53;100673.84;4820729;29;45799;-82
2022/10/22 11:00:54;;;;;;;;;3.00;2.75;;;;;19.35;64.47;100676.69;4820539;29;45618;-80
2022/10/22 11:06:43;;;;;;;;;2.00;2.00;;;;;19.28;64.37;100646.44;4820414;29;45714;-80
2022/10/22 11:09:26;;;;;;;;;3.00;2.00;;;;;19.49;64.23;100685.84;4819991;29;46055;-78
2022/10/22 11:12:05;;;;;;;;;3.00;2.50;;;;;19.53;64.39;100684.56;4853627;29;46435;-80
2022/10/22 11:15:27;;;;;;;;;2.75;2.75;;;;;19.59;63.94;100682.06;4876646;29;46726;-80
2022/10/22 11:18:00;;;;;;;;;2.25;2.25;;;;;19.49;63.99;100657.47;4897408;29;45789;-78
2022/10/22 11:23:59;;;;;;;;;2.00;2.00;;;;;19.78;63.82;100680.91;4957920;28;45668;-80
2022/10/22 11:26:28;;;;;;;;;3.00;3.00;;;;;19.83;63.82;100673.25;4958384;28;46055;-77
2022/10/22 11:28:55;;;;;;;;;2.00;2.00;;;;;19.88;63.59;100676.25;4956602;28;45681;-82
2022/10/22 11:31:24;;;;;;;;;2.00;2.00;;;;;19.90;63.72;100668.09;4962195;28;45719;-78
2022/10/22 11:34:03;;;;;;;;;2.00;2.00;;;;;19.98;63.42;100678.72;4966763;28;45811;-85
2022/10/22 11:36:30;;;;;;;;;1.25;1.00;;;;;19.86;63.81;100645.50;4961828;28;46606;-83
2022/10/22 11:38:56;;;;;;;;;2.00;1.75;;;;;20.06;63.07;100666.25;4958760;28;45750;-87
2022/10/22 11:41:29;;;;;;;;;2.75;2.00;;;;;20.01;63.04;100643.81;4962875;28;45628;-81
2022/10/22 11:44:18;;;;;;;;;1.25;1.25;;;;;20.16;62.71;100660.75;4973746;28;47420;-78
2022/10/22 11:47:08;;;;;;;;;1.00;1.00;;;;;19.80;62.88;100593.81;4971776;28;47246;-87
2022/10/22 11:49:45;;;;;;;;;2.25;1.50;;;;;20.28;62.41;100664.72;4966844;28;45584;-80
2022/10/22 11:52:26;;;;;;;;;1.75;1.00;;;;;20.33;62.11;100667.72;4951323;28;45665;-88
2022/10/22 11:55:00;;;;;;;;;0.75;0.75;;;;;20.36;62.02;100663.88;4965434;28;46605;-82
2022/10/22 11:57:38;;;;;;;;;3.00;1.75;;;;;20.39;62.25;100655.56;4952767;28;46896;-89
2022/10/22 12:00:41;;;;;;;;;2.75;1.50;;;;;20.31;61.98;100642.25;4947175;28;45547;-89
2022/10/22 12:03:24;;;;;;;;;2.75;1.75;;;;;20.33;61.31;100635.78;4902505;29;45710;-87
2022/10/22 12:06:10;;;;;;;;;3.75;2.00;;;;;20.51;61.41;100652.34;4899171;29;46312;-84
2022/10/22 12:08:52;;;;;;;;;1.75;1.25;;;;;20.55;61.25;100658.16;4898654;29;45922;-88
2022/10/22 12:11:24;;;;;;;;;1.75;1.75;;;;;20.53;61.16;100641.53;4901990;29;45688;-87
2022/10/22 12:14:02;;;;;;;;;2.00;1.00;;;;;20.60;60.65;100644.34;4902910;29;45616;-84
2022/10/22 12:16:44;;;;;;;;;0.75;0.50;;;;;20.64;60.78;100646.47;4904350;29;46397;-89
2022/10/22 12:19:09;;;;;;;;;1.25;0.75;;;;;20.72;60.74;100648.28;4899302;29;45754;-88
2022/10/22 12:21:37;;;;;;;;;1.00;1.00;;;;;20.75;60.61;100648.75;4898377;29;45698;-79
2022/10/22 12:24:05;;;;;;;;;0.00;0.00;;;;;20.75;60.23;100651.41;4898457;29;45620;-88
2022/10/22 12:26:35;;;;;;;;;0.75;0.00;;;;;20.81;60.16;100653.41;4902385;29;46731;-85
2022/10/22 12:29:05;;;;;;;;;0.75;0.25;;;;;20.85;60.24;100643.22;4900771;29;46388;-84
2022/10/22 12:31:36;;;;;;;;;0.75;0.50;;;;;20.89;59.92;100640.03;4900716;29;45798;-87
2022/10/22 12:34:02;;;;;;;;;0.75;0.50;;;;;20.90;60.14;100633.69;4899065;29;45663;-87
2022/10/22 12:36:29;;;;;;;;;1.00;0.25;;;;;20.95;59.52;100641.16;4914751;28;46509;-85
2022/10/22 12:38:59;;;;;;;;;0.00;0.00;;;;;20.95;59.21;100628.66;4904887;28;46408;-87
2022/10/22 12:41:37;;;;;;;;;1.00;1.00;;;;;20.97;59.64;100631.16;4936571;28;45772;-78
2022/10/22 12:44:04;;;;;;;;;0.50;0.25;;;;;20.99;58.64;100629.16;4936864;28;45705;-77
2022/10/22 12:46:34;;;;;;;;;1.00;1.00;;;;;21.01;58.54;100624.47;4937184;28;47607;-78
2022/10/22 12:49:03;;;;;;;;;0.50;0.50;;;;;21.00;58.77;100620.16;4936935;28;46358;-79
2022/10/22 12:51:29;;;;;;;;;0.75;0.00;;;;;21.10;58.02;100622.59;4937123;28;45601;-78
2022/10/22 12:53:58;;;;;;;;;0.75;0.50;;;;;21.15;57.42;100625.59;4937447;28;45775;-80
2022/10/22 12:56:30;;;;;;;;;0.75;0.75;;;;;21.19;57.67;100627.72;4936935;28;46709;-81
2022/10/22 12:59:00;;;;;;;;;1.75;0.75;;;;;21.22;57.77;100623.84;4937519;28;45940;-80
2022/10/22 13:01:31;;;;;;;;;1.00;0.00;;;;;21.18;57.18;100602.06;4936652;28;45772;-79
2022/10/22 13:04:21;;;;;;;;;0.50;0.00;;;;;21.21;57.06;100604.41;4937120;28;45976;-79
2022/10/22 13:06:49;;;;;;;;;0.75;0.50;;;;;21.26;56.45;100598.53;4935389;28;47984;-78
2022/10/22 13:09:22;;;;;;;;;1.25;0.00;;;;;21.30;56.22;100605.16;4936279;28;47275;-78
2022/10/22 13:11:52;;;;;;;;;1.00;0.50;;;;;21.34;56.64;100598.47;4936489;28;45659;-78
2022/10/22 13:14:29;;;;;;;;;0.00;0.00;;;;;21.33;56.17;100599.47;4936537;28;45539;-77
2022/10/22 13:17:05;;;;;;;;;0.75;0.75;;;;;21.41;56.20;100607.41;4936897;28;46201;-77